createdAt,value
2017-11-09T00:02:17.058Z,55.53
2017-11-09T00:04:52.710Z,62.50
2017-11-09T00:07:22.252Z,59.10
2017-11-09T00:09:52.816Z,60.70
2017-11-09T00:12:22.326Z,59.47
2017-11-09T00:14:56.949Z,54.87
2017-11-09T00:17:28.218Z,60.50
2017-11-09T00:19:58.617Z,57.70
2017-11-09T00:22:28.152Z,70.13
2017-11-09T00:24:58.049Z,66.30
2017-11-09T00:27:27.951Z,65.93
2017-11-09T00:29:57.873Z,63.13
2017-11-09T00:32:27.996Z,63.10
2017-11-09T00:34:57.515Z,67.20
2017-11-09T00:37:27.806Z,58.47
2017-11-09T00:39:57.638Z,55.30
2017-11-09T00:42:27.198Z,61.23
2017-11-09T00:44:56.957Z,53.97
2017-11-09T00:47:26.752Z,59.03
2017-11-09T00:49:56.439Z,49.57
2017-11-09T00:52:26.098Z,55.43
2017-11-09T00:54:56.370Z,61.40
2017-11-09T00:57:26.209Z,64.47
2017-11-09T00:59:56.043Z,67.40
2017-11-09T01:02:26.236Z,65.70
2017-11-09T01:04:55.965Z,58.60
2017-11-09T01:07:25.450Z,68.10
2017-11-09T01:09:55.050Z,69.10
2017-11-09T01:12:24.538Z,66.30
2017-11-09T01:14:54.392Z,61.30
2017-11-09T01:17:23.950Z,60.23
2017-11-09T01:19:53.487Z,58.80
2017-11-09T01:22:22.987Z,58.07
2017-11-09T01:24:52.650Z,58.10
2017-11-09T01:27:22.134Z,56.93
2017-11-09T01:29:52.533Z,59.00
2017-11-09T01:32:22.159Z,60.23
2017-11-09T01:34:52.151Z,58.37
2017-11-09T01:37:21.729Z,55.13
2017-11-09T01:39:51.781Z,62.93
2017-11-09T01:42:21.294Z,56.13
2017-11-09T01:44:50.841Z,58.10
2017-11-09T01:47:20.391Z,54.40
2017-11-09T01:49:50.106Z,55.87
2017-11-09T01:52:20.067Z,53.33
2017-11-09T01:54:49.756Z,55.93
2017-11-09T01:57:19.756Z,49.37
2017-11-09T01:59:49.470Z,50.07
2017-11-09T02:02:19.264Z,53.93
2017-11-09T02:04:48.802Z,61.20
2017-11-09T02:07:18.409Z,54.30
2017-11-09T02:09:48.780Z,63.13
2017-11-09T02:12:18.612Z,65.50
2017-11-09T02:14:48.323Z,60.23
2017-11-09T02:17:19.438Z,47.70
2017-11-09T02:19:48.997Z,54.67
2017-11-09T02:22:19.093Z,56.20
2017-11-09T02:24:49.003Z,53.23
2017-11-09T02:27:18.555Z,47.63
2017-11-09T02:29:48.423Z,54.97
2017-11-09T02:32:19.625Z,53.17
2017-11-09T02:34:49.394Z,52.97
2017-11-09T02:37:19.193Z,54.37
2017-11-09T02:39:50.262Z,49.70
2017-11-09T02:42:19.962Z,52.27
2017-11-09T02:44:50.337Z,52.73
2017-11-09T02:47:21.019Z,61.73
2017-11-09T02:49:50.914Z,53.33
2017-11-09T02:52:21.573Z,53.30
2017-11-09T02:54:52.177Z,56.50
2017-11-09T02:57:22.798Z,50.43
2017-11-09T02:59:53.940Z,68.83
2017-11-09T03:02:25.599Z,49.00
2017-11-09T03:04:56.341Z,56.17
2017-11-09T03:07:26.106Z,61.97
2017-11-09T03:09:56.037Z,55.90
2017-11-09T03:12:25.995Z,60.03
2017-11-09T03:14:56.504Z,54.73
2017-11-09T03:17:26.224Z,60.97
2017-11-09T03:19:55.922Z,52.47
2017-11-09T03:22:26.401Z,60.97
2017-11-09T03:24:57.365Z,57.60
2017-11-09T03:27:27.927Z,55.80
2017-11-09T03:29:57.748Z,62.90
2017-11-09T03:32:27.468Z,56.57
2017-11-09T03:34:57.782Z,58.10
2017-11-09T03:37:27.444Z,59.23
2017-11-09T03:39:59.296Z,65.13
2017-11-09T03:42:30.244Z,61.60
2017-11-09T03:45:01.318Z,64.47
2017-11-09T03:47:31.130Z,57.00
2017-11-09T03:50:02.266Z,61.47
2017-11-09T03:52:33.413Z,62.03
2017-11-09T03:55:03.195Z,60.13
2017-11-09T03:57:33.032Z,61.87
2017-11-09T04:00:02.536Z,67.03
2017-11-09T04:02:32.039Z,58.77
2017-11-09T04:05:01.751Z,58.57
2017-11-09T04:07:32.095Z,65.47
2017-11-09T04:10:01.662Z,60.80
2017-11-09T04:12:31.385Z,60.23
2017-11-09T04:15:01.100Z,62.13
2017-11-09T04:17:30.741Z,61.90
2017-11-09T04:20:01.133Z,57.47
2017-11-09T04:22:30.741Z,63.50
2017-11-09T04:25:00.363Z,64.97
2017-11-09T04:27:30.277Z,70.07
2017-11-09T04:29:59.873Z,61.03
2017-11-09T04:32:29.578Z,64.33
2017-11-09T04:34:59.251Z,62.80
2017-11-09T04:37:28.893Z,66.33
2017-11-09T04:39:58.454Z,69.20
2017-11-09T04:42:28.144Z,67.07
2017-11-09T04:44:58.022Z,73.60
2017-11-09T04:47:28.245Z,68.40
2017-11-09T04:49:58.261Z,68.00
2017-11-09T04:52:28.501Z,57.23
2017-11-09T04:54:58.567Z,66.80
2017-11-09T04:57:28.540Z,63.53
2017-11-09T05:00:00.065Z,60.83
2017-11-09T05:02:29.881Z,62.10
2017-11-09T05:04:59.796Z,63.60
2017-11-09T05:07:30.146Z,64.53
2017-11-09T05:10:01.208Z,62.33
2017-11-09T05:12:30.950Z,62.30
2017-11-09T05:15:00.508Z,64.77
2017-11-09T05:17:30.207Z,54.70
2017-11-09T05:19:59.895Z,47.43
2017-11-09T05:22:29.604Z,48.67
2017-11-09T05:24:59.212Z,55.33
2017-11-09T05:27:28.919Z,49.57
2017-11-09T05:29:58.511Z,54.07
2017-11-09T05:32:28.235Z,50.50
2017-11-09T05:34:57.868Z,47.57
2017-11-09T05:37:27.860Z,54.60
2017-11-09T05:39:57.497Z,55.47
2017-11-09T05:42:27.857Z,47.10
2017-11-09T05:44:57.602Z,57.20
2017-11-09T05:47:27.542Z,52.37
2017-11-09T05:49:58.269Z,57.93
2017-11-09T05:52:28.986Z,54.37
2017-11-09T05:54:59.409Z,59.03
2017-11-09T05:57:29.122Z,54.40
2017-11-09T05:59:59.081Z,55.00
2017-11-09T06:02:29.049Z,53.40
2017-11-09T06:04:59.373Z,62.60
2017-11-09T06:07:30.136Z,63.67
2017-11-09T06:10:40.580Z,72.40
2017-11-09T06:13:33.668Z,93.50
2017-11-09T06:16:03.459Z,80.80
2017-11-09T06:18:34.377Z,84.17
2017-11-09T06:21:03.845Z,85.20
2017-11-09T06:23:33.517Z,73.30
2017-11-09T06:26:03.807Z,92.63
2017-11-09T06:28:33.588Z,79.23
2017-11-09T06:31:03.743Z,82.57
2017-11-09T06:33:33.422Z,77.43
2017-11-09T06:36:03.323Z,75.57
2017-11-09T06:38:34.185Z,88.23
2017-11-09T06:41:03.944Z,84.40
2017-11-09T06:43:33.728Z,80.57
2017-11-09T06:46:04.466Z,84.47
2017-11-09T06:48:34.209Z,79.30
2017-11-09T06:51:03.840Z,85.93
2017-11-09T06:53:33.585Z,85.27
2017-11-09T06:56:03.297Z,74.90
2017-11-09T06:58:33.046Z,86.67
2017-11-09T07:01:02.649Z,85.40
2017-11-09T07:03:32.974Z,73.03
2017-11-09T07:06:02.543Z,84.57
2017-11-09T07:08:32.273Z,86.10
2017-11-09T07:11:03.844Z,82.37
2017-11-09T07:13:34.052Z,81.37
2017-11-09T07:16:04.664Z,81.07
2017-11-09T07:18:34.342Z,79.90
2017-11-09T07:21:03.996Z,85.27
2017-11-09T07:23:34.289Z,93.07
2017-11-09T07:26:03.874Z,78.70
2017-11-09T07:28:33.634Z,90.87
2017-11-09T07:31:03.222Z,86.73
2017-11-09T07:33:32.930Z,90.83
2017-11-09T07:36:02.566Z,93.70
2017-11-09T07:38:32.260Z,91.20
2017-11-09T07:41:01.789Z,91.93
2017-11-09T07:43:32.287Z,84.10
2017-11-09T07:46:01.782Z,85.77
2017-11-09T07:48:31.310Z,99.27
2017-11-09T07:51:00.879Z,96.57
2017-11-09T07:53:30.621Z,91.70
2017-11-09T07:56:00.285Z,90.73
2017-11-09T07:58:30.087Z,100.10
2017-11-09T08:00:59.866Z,102.47
2017-11-09T08:03:29.667Z,93.97
2017-11-09T08:06:00.201Z,97.63
2017-11-09T08:08:30.207Z,95.83
2017-11-09T08:11:00.629Z,103.30
2017-11-09T08:13:30.903Z,101.33
2017-11-09T08:16:01.065Z,99.53
2017-11-09T08:18:30.568Z,90.30
2017-11-09T08:21:00.397Z,99.60
2017-11-09T08:23:30.412Z,98.53
2017-11-09T08:26:08.206Z,101.17
2017-11-09T08:28:42.805Z,99.83
2017-11-09T08:31:17.892Z,103.77
2017-11-09T08:33:48.176Z,104.73
2017-11-09T08:36:18.005Z,94.23
2017-11-09T08:38:47.702Z,93.70
2017-11-09T08:41:17.248Z,104.87
2017-11-09T08:43:47.150Z,106.20
2017-11-09T08:46:16.745Z,108.53
2017-11-09T08:48:46.538Z,111.60
2017-11-09T08:51:16.478Z,108.10
2017-11-09T08:53:48.001Z,108.33
2017-11-09T08:56:17.846Z,109.23
2017-11-09T08:58:48.381Z,109.90
2017-11-09T09:01:18.908Z,116.20
2017-11-09T09:03:49.532Z,107.13
2017-11-09T09:06:19.213Z,121.70
2017-11-09T09:08:49.010Z,107.83
2017-11-09T09:11:18.831Z,119.97
2017-11-09T09:13:48.845Z,110.93
2017-11-09T09:16:18.562Z,109.50
2017-11-09T09:18:48.922Z,109.90
2017-11-09T09:21:18.819Z,100.73
2017-11-09T09:23:48.626Z,116.90
2017-11-09T09:26:18.487Z,111.33
2017-11-09T09:28:48.970Z,98.33
2017-11-09T09:31:18.586Z,99.17
2017-11-09T09:33:53.703Z,105.83
2017-11-09T09:36:31.038Z,104.10
2017-11-09T09:39:06.489Z,104.13
2017-11-09T09:41:36.548Z,101.57
2017-11-09T09:44:06.174Z,118.43
2017-11-09T09:46:36.076Z,111.80
2017-11-09T09:49:06.612Z,112.47
2017-11-09T09:51:37.238Z,104.43
2017-11-09T09:54:06.839Z,112.23
2017-11-09T09:56:37.204Z,116.30
2017-11-09T09:59:06.885Z,105.47
2017-11-09T10:01:36.679Z,113.33
2017-11-09T10:04:06.501Z,108.13
2017-11-09T10:06:36.292Z,112.13
2017-11-09T10:09:06.441Z,113.70
2017-11-09T10:11:36.237Z,106.77
2017-11-09T10:14:05.954Z,114.90
2017-11-09T10:16:35.777Z,121.93
2017-11-09T10:19:05.499Z,120.67
2017-11-09T10:21:35.302Z,107.93
2017-11-09T10:24:05.711Z,109.70
2017-11-09T10:26:36.499Z,118.97
2017-11-09T10:29:06.143Z,120.27
2017-11-09T10:31:36.066Z,116.57
2017-11-09T10:34:05.868Z,133.30
2017-11-09T10:36:35.592Z,117.83
2017-11-09T10:39:05.546Z,119.43
2017-11-09T10:41:35.092Z,121.93
2017-11-09T10:44:04.946Z,133.93
2017-11-09T10:46:35.015Z,140.13
2017-11-09T10:49:05.183Z,119.73
2017-11-09T10:51:35.780Z,125.17
2017-11-09T10:54:05.380Z,136.47
2017-11-09T10:56:35.409Z,124.13
2017-11-09T10:59:05.639Z,132.80
2017-11-09T11:01:36.363Z,124.57
2017-11-09T11:04:06.276Z,118.77
2017-11-09T11:06:36.289Z,129.63
2017-11-09T11:09:06.721Z,119.37
2017-11-09T11:11:36.548Z,119.77
2017-11-09T11:14:07.164Z,114.57
2017-11-09T11:16:36.717Z,115.63
2017-11-09T11:19:06.510Z,108.10
2017-11-09T11:21:37.108Z,119.00
2017-11-09T11:24:06.817Z,115.17
2017-11-09T11:26:37.679Z,107.83
2017-11-09T11:29:08.100Z,109.67
2017-11-09T11:31:38.182Z,117.47
2017-11-09T11:34:07.813Z,111.27
2017-11-09T11:36:38.335Z,108.73
2017-11-09T11:39:08.156Z,105.30
2017-11-09T11:41:37.719Z,94.90
2017-11-09T11:44:07.378Z,105.33
2017-11-09T11:46:38.128Z,95.07
2017-11-09T11:49:08.263Z,111.13
2017-11-09T11:51:38.025Z,109.27
2017-11-09T11:54:07.836Z,111.73
2017-11-09T11:56:37.588Z,104.03
2017-11-09T11:59:07.897Z,112.87
2017-11-09T12:01:37.781Z,102.27
2017-11-09T12:04:07.532Z,100.60
2017-11-09T12:06:37.215Z,95.83
2017-11-09T12:09:07.245Z,107.03
2017-11-09T12:11:38.009Z,107.10
2017-11-09T12:14:08.111Z,93.87
2017-11-09T12:16:37.927Z,93.93
2017-11-09T12:19:08.002Z,92.30
2017-11-09T12:21:37.752Z,90.10
2017-11-09T12:24:07.522Z,102.00
2017-11-09T12:26:37.233Z,81.90
2017-11-09T12:29:06.898Z,87.43
2017-11-09T12:31:36.766Z,96.23
2017-11-09T12:34:07.547Z,87.20
2017-11-09T12:36:37.197Z,93.57
2017-11-09T12:39:06.811Z,92.60
2017-11-09T12:41:38.013Z,81.37
2017-11-09T12:44:08.170Z,80.50
2017-11-09T12:46:37.773Z,82.73
2017-11-09T12:49:07.700Z,80.10
2017-11-09T12:51:37.791Z,85.90
2017-11-09T12:54:07.694Z,90.40
2017-11-09T12:56:37.432Z,78.93
2017-11-09T12:59:08.493Z,85.73
2017-11-09T13:01:38.560Z,86.90
2017-11-09T13:04:08.609Z,91.30
2017-11-09T13:06:39.176Z,90.83
2017-11-09T13:09:09.033Z,83.73
2017-11-09T13:11:39.271Z,87.37
2017-11-09T13:14:16.193Z,84.57
2017-11-09T13:16:56.477Z,83.30
2017-11-09T13:19:47.931Z,87.50
2017-11-09T13:22:17.748Z,89.93
2017-11-09T13:24:48.403Z,85.93
2017-11-09T13:27:18.466Z,87.67
2017-11-09T13:29:48.232Z,97.97
2017-11-09T13:32:19.033Z,93.00
2017-11-09T13:34:50.971Z,102.33
2017-11-09T13:37:20.625Z,93.17
2017-11-09T13:39:50.323Z,93.63
2017-11-09T13:42:20.059Z,96.03
2017-11-09T13:44:49.755Z,93.23
2017-11-09T13:47:19.325Z,99.60
2017-11-09T13:49:48.969Z,86.50
2017-11-09T13:52:18.563Z,105.00
2017-11-09T13:54:48.574Z,98.90
2017-11-09T13:57:20.431Z,94.97
2017-11-09T13:59:49.985Z,100.63
2017-11-09T14:02:19.948Z,94.20
2017-11-09T14:04:49.671Z,99.27
2017-11-09T14:07:19.472Z,95.30
2017-11-09T14:09:49.284Z,97.03
2017-11-09T14:12:19.198Z,106.70
2017-11-09T14:14:48.885Z,91.10
2017-11-09T14:17:18.580Z,93.17
2017-11-09T14:19:50.071Z,79.10
2017-11-09T14:22:19.675Z,82.10
2017-11-09T14:24:50.533Z,85.83
2017-11-09T14:27:20.225Z,81.93
2017-11-09T14:29:49.984Z,68.93
2017-11-09T14:32:19.938Z,74.00
2017-11-09T14:34:49.549Z,71.37
2017-11-09T14:37:19.282Z,74.60
2017-11-09T14:39:48.914Z,66.10
2017-11-09T14:42:18.679Z,66.50
2017-11-09T14:44:48.707Z,81.23
2017-11-09T14:47:21.528Z,76.17
2017-11-09T14:49:51.270Z,77.57
2017-11-09T14:52:21.002Z,61.97
2017-11-09T14:54:50.739Z,66.17
2017-11-09T14:57:21.033Z,61.67
2017-11-09T14:59:50.847Z,69.67
2017-11-09T15:02:20.558Z,67.50
2017-11-09T15:04:50.482Z,67.20
2017-11-09T15:07:20.287Z,74.63
2017-11-09T15:09:50.261Z,64.53
2017-11-09T15:12:19.982Z,58.60
2017-11-09T15:14:49.921Z,67.13
2017-11-09T15:17:19.837Z,65.37
2017-11-09T15:19:50.717Z,69.20
2017-11-09T15:22:20.725Z,61.00
2017-11-09T15:24:50.907Z,57.43
2017-11-09T15:27:20.851Z,47.73
2017-11-09T15:29:50.702Z,56.37
2017-11-09T15:32:20.259Z,52.27
2017-11-09T15:34:50.241Z,49.00
2017-11-09T15:37:20.096Z,53.30
2017-11-09T15:39:49.963Z,48.40
2017-11-09T15:42:19.899Z,65.60
2017-11-09T15:44:50.659Z,62.57
2017-11-09T15:47:21.342Z,54.70
2017-11-09T15:49:51.074Z,52.73
2017-11-09T15:52:20.956Z,60.30
2017-11-09T15:54:50.600Z,59.73
2017-11-09T15:57:20.848Z,66.13
2017-11-09T15:59:50.653Z,55.67
2017-11-09T16:02:21.466Z,51.73
2017-11-09T16:04:51.483Z,50.97
2017-11-09T16:07:22.877Z,51.23
2017-11-09T16:09:52.658Z,50.33
2017-11-09T16:12:22.480Z,48.43
2017-11-09T16:14:52.167Z,46.20
2017-11-09T16:17:21.974Z,51.73
2017-11-09T16:19:51.714Z,55.90
2017-11-09T16:22:22.065Z,49.70
2017-11-09T16:24:53.656Z,49.03
2017-11-09T16:27:24.310Z,49.07
2017-11-09T16:29:54.121Z,46.07
2017-11-09T16:32:24.533Z,48.73
2017-11-09T16:34:54.372Z,46.17
2017-11-09T16:37:25.091Z,48.70
2017-11-09T16:39:54.975Z,54.70
2017-11-09T16:42:24.701Z,58.43
2017-11-09T16:44:54.718Z,56.97
2017-11-09T16:47:24.738Z,56.47
2017-11-09T16:49:54.743Z,61.77
2017-11-09T16:52:24.522Z,61.43
2017-11-09T16:54:54.275Z,61.60
2017-11-09T16:57:23.982Z,60.23
2017-11-09T16:59:55.125Z,49.17
2017-11-09T17:02:26.013Z,50.53
2017-11-09T17:04:55.771Z,63.97
2017-11-09T17:07:26.622Z,59.23
2017-11-09T17:09:56.729Z,63.17
2017-11-09T17:12:26.376Z,47.77
2017-11-09T17:15:02.903Z,53.53
2017-11-09T17:17:33.209Z,46.87
2017-11-09T17:20:03.039Z,37.73
2017-11-09T17:22:33.058Z,41.10
2017-11-09T17:25:03.335Z,36.93
2017-11-09T17:27:33.760Z,39.33
2017-11-09T17:30:03.828Z,27.63
2017-11-09T17:32:33.849Z,39.40
2017-11-09T17:35:03.679Z,29.53
2017-11-09T17:37:33.783Z,33.63
2017-11-09T17:40:08.301Z,30.37
2017-11-09T17:42:42.244Z,30.73
2017-11-09T17:45:12.311Z,29.23
2017-11-09T17:47:42.336Z,25.97
2017-11-09T17:50:12.197Z,20.53
2017-11-09T17:52:42.376Z,21.67
2017-11-09T17:55:12.285Z,19.03
2017-11-09T17:57:42.251Z,19.40
2017-11-09T18:00:20.072Z,20.83
2017-11-09T18:02:49.842Z,27.43
2017-11-09T18:05:21.385Z,21.00
2017-11-09T18:07:51.994Z,16.83
2017-11-09T18:10:21.860Z,11.33
2017-11-09T18:12:52.130Z,10.40
2017-11-09T18:15:22.043Z,12.23
2017-11-09T18:17:54.253Z,12.40
2017-11-09T18:20:24.494Z,8.50
2017-11-09T18:23:16.061Z,16.03
2017-11-09T18:25:46.023Z,14.53
2017-11-09T18:28:15.812Z,8.40
2017-11-09T18:30:46.832Z,8.43
2017-11-09T18:33:17.127Z,9.40
2017-11-09T18:35:47.090Z,8.30
2017-11-09T18:38:17.858Z,5.17
2017-11-09T18:40:47.846Z,9.87
2017-11-09T18:43:17.723Z,4.43
2017-11-09T18:45:47.949Z,6.13
2017-11-09T18:48:18.044Z,4.30
2017-11-09T18:53:47.979Z,4.07
2017-11-09T18:56:18.047Z,7.10
2017-11-09T18:58:48.861Z,216.23
2017-11-09T19:01:18.826Z,80.50
2017-11-09T19:03:49.909Z,75.20
2017-11-09T19:06:20.189Z,54.77
2017-11-09T19:08:50.281Z,51.13
2017-11-09T19:11:20.465Z,40.80
2017-11-09T19:13:50.855Z,36.73
2017-11-09T19:16:20.543Z,36.73
2017-11-09T19:18:50.360Z,32.77
2017-11-09T19:21:20.441Z,25.60
2017-11-09T19:23:50.356Z,21.23
2017-11-09T19:26:20.214Z,27.83
2017-11-09T19:28:50.162Z,17.40
2017-11-09T19:31:20.129Z,16.93
2017-11-09T19:33:51.236Z,16.50
2017-11-09T19:36:22.382Z,11.43
2017-11-09T19:38:52.205Z,11.37
2017-11-09T19:41:22.912Z,11.90
2017-11-09T19:43:54.728Z,21.40
2017-11-09T19:46:24.622Z,12.23
2017-11-09T19:48:55.334Z,10.57
2017-11-09T19:51:25.410Z,7.87
2017-11-09T19:53:55.151Z,9.07
2017-11-09T19:56:25.070Z,6.33
2017-11-09T19:58:54.887Z,7.43
2017-11-09T20:01:24.722Z,9.07
2017-11-09T20:03:54.741Z,13.20
2017-11-09T20:06:25.190Z,10.60
2017-11-09T20:08:55.321Z,7.60
2017-11-09T20:11:26.095Z,5.53
2017-11-09T20:13:56.569Z,5.80
2017-11-09T20:16:26.422Z,6.23
2017-11-09T20:18:56.406Z,10.17
2017-11-09T20:21:26.568Z,11.07
2017-11-09T20:23:57.552Z,11.13
2017-11-09T20:26:27.455Z,3.80
2017-11-09T20:28:57.790Z,7.57
2017-11-09T20:31:27.597Z,4.73
2017-11-09T20:33:57.676Z,11.00
2017-11-09T20:36:27.708Z,6.40
2017-11-09T20:38:58.685Z,7.17
2017-11-09T20:41:29.573Z,11.27
2017-11-09T20:44:00.352Z,6.47
2017-11-09T20:46:30.237Z,6.23
2017-11-09T20:49:00.846Z,4.40
2017-11-09T20:51:30.566Z,7.70
2017-11-09T20:54:00.267Z,5.33
2017-11-09T20:56:30.193Z,6.07
2017-11-09T20:58:59.880Z,9.30
2017-11-09T21:01:29.938Z,5.30
2017-11-09T21:03:59.853Z,7.90
2017-11-09T21:06:29.736Z,12.27
2017-11-09T21:08:59.545Z,8.20
2017-11-09T21:11:29.474Z,5.17
2017-11-09T21:14:00.445Z,5.20
2017-11-09T21:16:31.461Z,7.53
2017-11-09T21:19:01.293Z,7.27
2017-11-09T21:21:30.980Z,9.80
2017-11-09T21:24:00.771Z,5.97
2017-11-09T21:26:30.479Z,7.67
2017-11-09T21:29:00.395Z,8.83
2017-11-09T21:31:30.009Z,4.80
2017-11-09T21:34:00.019Z,9.10
2017-11-09T21:36:29.727Z,8.80
2017-11-09T21:38:59.753Z,4.90
2017-11-09T21:41:29.724Z,6.13
2017-11-09T21:44:00.315Z,5.20
2017-11-09T21:46:30.853Z,6.73
2017-11-09T21:49:00.677Z,5.17
2017-11-09T21:51:30.369Z,6.50
2017-11-09T21:54:00.151Z,5.10
2017-11-09T21:56:29.900Z,10.53
2017-11-09T21:58:59.693Z,5.40
2017-11-09T22:01:30.612Z,7.37
2017-11-09T22:04:01.453Z,9.13
2017-11-09T22:06:31.294Z,8.47
2017-11-09T22:09:02.204Z,9.53
2017-11-09T22:11:31.908Z,4.40
2017-11-09T22:14:02.059Z,3.17
2017-11-09T22:16:31.694Z,4.33
2017-11-09T22:19:01.344Z,3.43
2017-11-09T22:21:32.829Z,3.70
2017-11-09T22:24:02.744Z,10.57
2017-11-09T22:26:32.578Z,4.70
2017-11-09T22:29:02.536Z,3.47
2017-11-09T22:31:32.871Z,6.53
2017-11-09T22:34:03.514Z,4.53
2017-11-09T22:36:33.520Z,6.37
2017-11-09T22:39:03.294Z,3.43
2017-11-09T22:41:32.951Z,7.37
2017-11-09T22:44:02.976Z,4.90
2017-11-09T22:46:33.545Z,5.50
2017-11-09T22:49:03.609Z,3.23
2017-11-09T22:51:33.842Z,3.53
2017-11-09T22:54:04.394Z,6.63
2017-11-09T22:56:34.325Z,3.97
2017-11-09T22:59:04.373Z,5.57
2017-11-09T23:01:34.655Z,2.70
2017-11-09T23:04:04.234Z,3.53
2017-11-09T23:06:33.912Z,2.93
2017-11-09T23:09:03.858Z,4.30
2017-11-09T23:11:34.390Z,4.00
2017-11-09T23:14:04.403Z,2.53
2017-11-09T23:16:35.309Z,4.53
2017-11-09T23:19:04.941Z,3.53
2017-11-09T23:21:35.653Z,6.87
2017-11-09T23:24:05.568Z,9.20
2017-11-09T23:26:35.404Z,3.60
2017-11-09T23:29:07.337Z,5.60
2017-11-09T23:31:38.927Z,4.67
2017-11-09T23:34:08.865Z,4.13
2017-11-09T23:36:38.563Z,3.57
2017-11-09T23:39:08.530Z,3.20
2017-11-09T23:41:38.571Z,5.43
2017-11-09T23:44:08.187Z,3.30
2017-11-09T23:46:38.926Z,7.00
2017-11-09T23:49:09.722Z,2.27
2017-11-09T23:51:39.569Z,2.70
2017-11-09T23:54:09.370Z,2.00
2017-11-09T23:56:39.978Z,1.97
2017-11-09T23:59:09.880Z,1.80
